createdAt,value
2023-03-06T00:00:48.502Z,9.85
2023-03-06T00:03:16.836Z,9.30
2023-03-06T00:05:44.539Z,10.30
2023-03-06T00:08:11.975Z,8.95
2023-03-06T00:10:40.346Z,8.10
2023-03-06T00:13:13.007Z,10.77
2023-03-06T00:15:40.347Z,8.82
2023-03-06T00:18:08.012Z,9.20
2023-03-06T00:20:36.130Z,9.48
2023-03-06T00:23:03.608Z,11.60
2023-03-06T00:25:30.898Z,8.15
2023-03-06T00:27:58.199Z,8.75
2023-03-06T00:30:25.797Z,11.40
2023-03-06T00:32:53.599Z,9.52
2023-03-06T00:35:21.109Z,9.80
2023-03-06T00:37:48.479Z,8.48
2023-03-06T00:40:18.904Z,8.73
2023-03-06T00:42:46.593Z,11.50
2023-03-06T00:45:14.515Z,8.75
2023-03-06T00:47:42.094Z,8.00
2023-03-06T00:50:10.495Z,8.68
2023-03-06T00:52:37.859Z,9.00
2023-03-06T00:55:06.278Z,10.18
2023-03-06T00:57:33.609Z,10.50
2023-03-06T01:00:02.273Z,7.35
2023-03-06T01:02:29.746Z,7.90
2023-03-06T01:04:57.303Z,9.05
2023-03-06T01:07:27.240Z,7.18
2023-03-06T01:09:54.769Z,10.73
2023-03-06T01:12:23.554Z,8.20
2023-03-06T01:14:51.585Z,9.13
2023-03-06T01:17:18.929Z,9.50
2023-03-06T01:19:46.264Z,8.80
2023-03-06T01:22:14.262Z,7.85
2023-03-06T01:24:41.514Z,7.70
2023-03-06T01:27:09.007Z,7.72
2023-03-06T01:29:36.299Z,7.68
2023-03-06T01:32:03.967Z,6.88
2023-03-06T01:34:31.345Z,10.35
2023-03-06T01:36:58.642Z,8.45
2023-03-06T01:39:25.909Z,7.70
2023-03-06T01:41:53.149Z,6.15
2023-03-06T01:44:20.418Z,9.10
2023-03-06T01:46:47.771Z,10.18
2023-03-06T01:49:27.564Z,9.45
2023-03-06T01:51:57.589Z,10.57
2023-03-06T01:54:33.557Z,10.77
2023-03-06T01:57:05.749Z,7.40
2023-03-06T01:59:37.359Z,7.37
2023-03-06T02:02:08.474Z,8.35
2023-03-06T02:04:38.970Z,6.63
2023-03-06T02:07:07.642Z,7.18
2023-03-06T02:09:36.392Z,7.47
2023-03-06T02:12:10.272Z,6.35
2023-03-06T02:14:39.269Z,7.32
2023-03-06T02:17:08.775Z,7.85
2023-03-06T02:19:57.741Z,7.25
2023-03-06T02:22:33.166Z,7.18
2023-03-06T02:25:15.783Z,6.70
2023-03-06T02:27:43.142Z,6.90
2023-03-06T02:30:15.198Z,7.03
2023-03-06T02:32:42.477Z,7.05
2023-03-06T02:35:19.496Z,8.52
2023-03-06T02:37:47.170Z,7.55
2023-03-06T02:40:18.993Z,8.60
2023-03-06T02:42:48.888Z,7.00
2023-03-06T02:45:24.365Z,7.55
2023-03-06T02:47:51.625Z,6.55
2023-03-06T02:50:18.959Z,7.18
2023-03-06T02:52:46.274Z,7.50
2023-03-06T02:55:13.685Z,7.72
2023-03-06T02:57:41.096Z,8.32
2023-03-06T03:00:10.201Z,6.30
2023-03-06T03:02:37.594Z,9.02
2023-03-06T03:05:05.412Z,7.40
2023-03-06T03:07:32.948Z,7.75
2023-03-06T03:10:00.399Z,5.70
2023-03-06T03:12:28.827Z,7.43
2023-03-06T03:14:56.791Z,7.68
2023-03-06T03:17:24.533Z,6.60
2023-03-06T03:19:52.318Z,5.80
2023-03-06T03:22:20.595Z,7.85
2023-03-06T03:24:48.264Z,8.27
2023-03-06T03:27:15.650Z,6.43
2023-03-06T03:29:43.164Z,9.55
2023-03-06T03:32:10.826Z,9.68
2023-03-06T03:34:38.288Z,7.55
2023-03-06T03:37:06.287Z,7.93
2023-03-06T03:39:33.643Z,9.00
2023-03-06T03:42:03.587Z,6.60
2023-03-06T03:44:30.967Z,9.07
2023-03-06T03:46:58.803Z,6.07
2023-03-06T03:49:26.189Z,7.30
2023-03-06T03:51:54.005Z,6.28
2023-03-06T03:54:23.273Z,6.35
2023-03-06T03:56:53.342Z,7.97
2023-03-06T03:59:25.628Z,6.88
2023-03-06T04:02:21.718Z,6.75
2023-03-06T04:05:05.059Z,6.88
2023-03-06T04:07:32.746Z,5.82
2023-03-06T04:10:00.562Z,7.35
2023-03-06T04:12:29.487Z,8.27
2023-03-06T04:14:56.763Z,6.43
2023-03-06T04:17:24.168Z,8.73
2023-03-06T04:19:52.802Z,7.85
2023-03-06T04:22:20.147Z,6.57
2023-03-06T04:24:49.836Z,6.93
2023-03-06T04:27:18.282Z,6.78
2023-03-06T04:29:45.862Z,6.53
2023-03-06T04:32:13.308Z,7.50
2023-03-06T04:34:40.588Z,6.75
2023-03-06T04:37:18.425Z,6.72
2023-03-06T04:39:46.472Z,6.60
2023-03-06T04:42:13.776Z,6.93
2023-03-06T04:44:41.043Z,6.50
2023-03-06T04:47:08.476Z,6.45
2023-03-06T04:49:36.141Z,6.22
2023-03-06T04:52:04.399Z,7.13
2023-03-06T04:54:31.765Z,7.03
2023-03-06T04:56:59.382Z,7.00
2023-03-06T04:59:26.655Z,5.47
2023-03-06T05:01:53.999Z,6.18
2023-03-06T05:04:21.407Z,6.45
2023-03-06T05:06:48.642Z,7.20
2023-03-06T05:09:15.874Z,5.95
2023-03-06T05:11:43.202Z,8.70
2023-03-06T05:14:10.534Z,6.07
2023-03-06T05:16:37.849Z,7.78
2023-03-06T05:19:05.139Z,7.07
2023-03-06T05:21:32.414Z,5.85
2023-03-06T05:23:59.793Z,6.20
2023-03-06T05:26:27.033Z,7.95
2023-03-06T05:28:55.290Z,5.88
2023-03-06T05:31:22.532Z,6.25
2023-03-06T05:33:49.700Z,6.95
2023-03-06T05:36:16.968Z,5.85
2023-03-06T05:38:44.231Z,7.78
2023-03-06T05:41:13.296Z,6.43
2023-03-06T05:43:40.677Z,7.10
2023-03-06T05:46:08.178Z,4.35
2023-03-06T05:48:37.590Z,9.43
2023-03-06T05:51:05.607Z,5.88
2023-03-06T05:53:33.346Z,7.32
2023-03-06T05:56:03.884Z,5.68
2023-03-06T05:58:32.838Z,6.88
2023-03-06T06:01:00.770Z,5.50
2023-03-06T06:03:28.069Z,7.10
2023-03-06T06:05:55.365Z,7.60
2023-03-06T06:08:22.648Z,5.63
2023-03-06T06:10:52.818Z,7.03
2023-03-06T06:13:20.616Z,6.97
2023-03-06T06:15:47.887Z,6.78
2023-03-06T06:18:15.204Z,7.35
2023-03-06T06:20:42.525Z,7.65
2023-03-06T06:23:10.963Z,5.78
2023-03-06T06:25:38.243Z,5.30
2023-03-06T06:28:06.124Z,6.35
2023-03-06T06:30:34.073Z,6.50
2023-03-06T06:33:01.378Z,6.70
2023-03-06T06:35:28.654Z,5.95
2023-03-06T06:37:56.086Z,7.70
2023-03-06T06:40:24.394Z,7.90
2023-03-06T06:42:52.640Z,5.07
2023-03-06T06:45:19.966Z,5.88
2023-03-06T06:47:49.859Z,7.38
2023-03-06T06:50:17.120Z,8.25
2023-03-06T06:52:44.394Z,6.90
2023-03-06T06:55:12.636Z,6.38
2023-03-06T06:57:40.575Z,6.65
2023-03-06T07:00:09.535Z,6.47
2023-03-06T07:02:36.821Z,5.40
2023-03-06T07:05:05.552Z,6.30
2023-03-06T07:07:38.020Z,6.25
2023-03-06T07:10:14.507Z,5.68
2023-03-06T07:12:42.375Z,6.60
2023-03-06T07:15:13.280Z,7.30
2023-03-06T07:17:40.557Z,5.93
2023-03-06T07:20:08.930Z,7.55
2023-03-06T07:22:50.004Z,6.78
2023-03-06T07:25:18.678Z,5.05
2023-03-06T07:27:52.677Z,6.22
2023-03-06T07:30:21.582Z,6.03
2023-03-06T07:32:51.725Z,7.10
2023-03-06T07:35:20.688Z,6.20
2023-03-06T07:37:48.456Z,7.88
2023-03-06T07:40:15.768Z,6.55
2023-03-06T07:42:43.203Z,6.25
2023-03-06T07:45:13.697Z,6.57
2023-03-06T07:47:41.279Z,6.05
2023-03-06T07:50:09.041Z,7.10
2023-03-06T07:52:36.481Z,5.20
2023-03-06T07:55:04.510Z,6.97
2023-03-06T07:57:31.753Z,5.35
2023-03-06T07:59:58.992Z,5.90
2023-03-06T08:02:26.302Z,5.13
2023-03-06T08:04:54.866Z,5.80
2023-03-06T08:07:22.786Z,7.97
2023-03-06T08:09:50.060Z,5.82
2023-03-06T08:12:17.349Z,7.70
2023-03-06T08:14:44.576Z,11.00
2023-03-06T08:17:11.846Z,7.15
2023-03-06T08:19:39.102Z,8.35
2023-03-06T08:22:06.649Z,8.88
2023-03-06T08:24:34.915Z,11.10
2023-03-06T08:27:02.344Z,9.10
2023-03-06T08:29:31.024Z,7.28
2023-03-06T08:31:59.326Z,9.80
2023-03-06T08:34:26.769Z,7.95
2023-03-06T08:36:54.093Z,6.03
2023-03-06T08:39:21.503Z,11.18
2023-03-06T08:41:48.731Z,8.68
2023-03-06T08:44:16.055Z,10.35
2023-03-06T08:46:43.367Z,7.38
2023-03-06T08:49:12.669Z,8.98
2023-03-06T08:51:39.975Z,7.75
2023-03-06T08:54:07.456Z,7.85
2023-03-06T08:56:34.841Z,6.68
2023-03-06T08:59:04.529Z,12.45
2023-03-06T09:01:35.115Z,7.90
2023-03-06T09:04:06.114Z,8.27
2023-03-06T09:06:35.953Z,9.57
2023-03-06T09:09:04.232Z,7.75
2023-03-06T09:11:31.704Z,5.72
2023-03-06T09:13:59.424Z,10.02
2023-03-06T09:16:26.901Z,8.73
2023-03-06T09:18:54.370Z,11.30
2023-03-06T09:21:23.086Z,8.15
2023-03-06T09:23:50.831Z,8.20
2023-03-06T09:26:18.716Z,13.10
2023-03-06T09:28:46.681Z,8.15
2023-03-06T09:31:17.729Z,7.53
2023-03-06T09:33:45.141Z,7.40
2023-03-06T09:36:18.224Z,6.88
2023-03-06T09:41:35.636Z,9.55
2023-03-06T09:44:06.286Z,4.45
2023-03-06T09:46:51.670Z,6.05
2023-03-06T09:49:23.108Z,6.32
2023-03-06T09:51:58.482Z,9.25
2023-03-06T09:54:33.614Z,6.25
2023-03-06T09:57:00.905Z,8.75
2023-03-06T09:59:28.635Z,6.28
2023-03-06T10:02:14.642Z,7.20
2023-03-06T10:04:46.301Z,7.38
2023-03-06T10:07:28.267Z,5.70
2023-03-06T10:10:01.845Z,5.07
2023-03-06T10:12:56.660Z,7.07
2023-03-06T10:15:33.437Z,8.52
2023-03-06T10:18:03.207Z,6.35
2023-03-06T10:21:07.394Z,4.68
2023-03-06T10:23:53.055Z,8.15
2023-03-06T10:26:25.314Z,6.80
2023-03-06T10:29:10.992Z,6.90
2023-03-06T10:31:49.534Z,5.95
2023-03-06T10:34:28.659Z,7.00
2023-03-06T10:37:02.493Z,5.20
2023-03-06T10:39:30.067Z,6.80
2023-03-06T10:41:57.328Z,6.38
2023-03-06T10:44:24.760Z,8.60
2023-03-06T10:46:53.692Z,5.82
2023-03-06T10:49:23.618Z,4.40
2023-03-06T10:52:00.373Z,5.63
2023-03-06T10:54:29.506Z,7.28
2023-03-06T10:56:56.882Z,7.70
2023-03-06T10:59:28.359Z,5.45
2023-03-06T11:01:58.718Z,6.82
2023-03-06T11:04:31.565Z,4.80
2023-03-06T11:07:14.518Z,6.60
2023-03-06T11:09:43.948Z,3.97
2023-03-06T11:12:26.755Z,5.55
2023-03-06T11:15:18.839Z,7.90
2023-03-06T11:17:52.694Z,6.82
2023-03-06T11:20:20.257Z,6.82
2023-03-06T11:23:05.074Z,4.95
2023-03-06T11:25:56.573Z,4.57
2023-03-06T11:28:25.713Z,5.38
2023-03-06T11:31:08.680Z,5.88
2023-03-06T11:33:46.851Z,4.65
2023-03-06T11:36:30.224Z,5.40
2023-03-06T11:41:39.545Z,4.35
2023-03-06T11:44:13.874Z,6.05
2023-03-06T11:46:48.628Z,4.30
2023-03-06T11:49:24.987Z,4.35
2023-03-06T11:52:00.270Z,4.30
2023-03-06T11:54:27.540Z,4.68
2023-03-06T11:57:04.296Z,5.95
2023-03-06T12:00:08.781Z,4.63
2023-03-06T12:03:00.250Z,5.90
2023-03-06T12:05:46.731Z,5.57
2023-03-06T12:08:25.026Z,5.82
2023-03-06T12:10:57.826Z,4.47
2023-03-06T12:13:55.010Z,5.85
2023-03-06T12:16:45.040Z,5.97
2023-03-06T12:19:31.035Z,7.57
2023-03-06T12:22:31.187Z,5.88
2023-03-06T12:25:31.175Z,4.53
2023-03-06T12:28:35.747Z,4.22
2023-03-06T12:31:25.017Z,3.38
2023-03-06T12:34:11.474Z,6.63
2023-03-06T12:36:47.625Z,5.60
2023-03-06T12:39:56.335Z,6.47
2023-03-06T12:42:38.431Z,5.63
2023-03-06T12:45:29.561Z,7.65
2023-03-06T12:47:58.045Z,8.32
2023-03-06T12:50:31.227Z,6.15
2023-03-06T12:53:03.110Z,4.65
2023-03-06T12:55:40.120Z,7.22
2023-03-06T12:58:51.066Z,4.28
2023-03-06T13:01:51.960Z,7.47
2023-03-06T13:04:45.591Z,6.60
2023-03-06T13:09:54.762Z,5.72
2023-03-06T13:12:38.447Z,7.32
2023-03-06T13:15:29.794Z,9.13
2023-03-06T13:17:57.650Z,8.15
2023-03-06T13:20:35.106Z,6.72
2023-03-06T13:23:33.384Z,9.82
2023-03-06T13:26:05.010Z,6.15
2023-03-06T13:28:50.275Z,8.65
2023-03-06T13:31:46.587Z,8.15
2023-03-06T13:34:32.232Z,5.13
2023-03-06T13:37:20.131Z,4.72
2023-03-06T13:39:56.932Z,7.63
2023-03-06T13:42:31.751Z,6.55
2023-03-06T13:45:15.109Z,8.52
2023-03-06T13:50:47.889Z,5.22
2023-03-06T13:53:36.913Z,8.82
2023-03-06T13:56:30.967Z,6.65
2023-03-06T13:59:25.877Z,6.55
2023-03-06T14:01:59.059Z,7.30
2023-03-06T14:04:38.618Z,3.85
2023-03-06T14:07:20.184Z,6.57
2023-03-06T14:09:57.288Z,6.20
2023-03-06T14:12:38.440Z,11.55
2023-03-06T14:15:20.383Z,8.93
2023-03-06T14:18:01.731Z,4.60
2023-03-06T14:20:59.472Z,5.55
2023-03-06T14:23:42.443Z,3.92
2023-03-06T14:26:22.096Z,4.80
2023-03-06T14:28:52.242Z,4.97
2023-03-06T14:31:24.563Z,4.47
2023-03-06T14:33:53.335Z,6.05
2023-03-06T14:36:24.327Z,8.63
2023-03-06T14:38:54.144Z,3.83
2023-03-06T14:41:39.697Z,6.13
2023-03-06T14:44:17.819Z,6.50
2023-03-06T14:46:47.027Z,4.18
2023-03-06T14:49:16.230Z,5.95
2023-03-06T14:51:46.850Z,5.00
2023-03-06T14:54:26.087Z,5.38
2023-03-06T14:57:06.034Z,5.25
2023-03-06T14:59:41.340Z,6.93
2023-03-06T15:02:17.596Z,4.18
2023-03-06T15:04:49.508Z,4.90
2023-03-06T15:07:22.828Z,3.88
2023-03-06T15:09:53.403Z,3.58
2023-03-06T15:12:20.836Z,6.63
2023-03-06T15:14:49.217Z,7.80
2023-03-06T15:17:19.444Z,4.22
2023-03-06T15:19:48.959Z,5.70
2023-03-06T15:22:30.838Z,3.28
2023-03-06T15:25:23.320Z,3.85
2023-03-06T15:27:56.933Z,6.03
2023-03-06T15:30:36.419Z,4.13
2023-03-06T15:33:26.561Z,4.53
2023-03-06T15:36:02.274Z,5.28
2023-03-06T15:38:37.217Z,4.28
2023-03-06T15:41:06.962Z,3.28
2023-03-06T15:43:41.387Z,3.22
2023-03-06T15:46:08.934Z,3.35
2023-03-06T15:48:36.271Z,5.20
2023-03-06T15:51:04.783Z,4.35
2023-03-06T15:53:32.701Z,3.78
2023-03-06T15:56:00.361Z,4.25
2023-03-06T15:58:33.266Z,4.57
2023-03-06T16:01:00.702Z,6.45
2023-03-06T16:03:30.958Z,3.58
2023-03-06T16:05:58.855Z,3.35
2023-03-06T16:08:26.198Z,3.78
2023-03-06T16:10:53.445Z,4.90
2023-03-06T16:13:31.231Z,3.70
2023-03-06T16:15:58.555Z,4.35
2023-03-06T16:18:25.844Z,5.40
2023-03-06T16:20:53.134Z,4.63
2023-03-06T16:23:20.322Z,3.35
2023-03-06T16:25:49.396Z,4.93
2023-03-06T16:28:16.872Z,3.85
2023-03-06T16:30:45.054Z,4.20
2023-03-06T16:33:13.372Z,4.32
2023-03-06T16:35:41.354Z,3.78
2023-03-06T16:38:10.187Z,3.33
2023-03-06T16:40:41.349Z,4.53
2023-03-06T16:43:10.609Z,3.10
2023-03-06T16:45:40.284Z,4.40
2023-03-06T16:48:10.529Z,3.22
2023-03-06T16:50:39.882Z,3.33
2023-03-06T16:53:08.054Z,4.68
2023-03-06T16:55:35.615Z,3.17
2023-03-06T16:58:03.023Z,4.72
2023-03-06T17:00:33.155Z,3.22
2023-03-06T17:03:02.410Z,3.53
2023-03-06T17:05:33.214Z,4.15
2023-03-06T17:08:00.563Z,2.55
2023-03-06T17:10:27.805Z,3.28
2023-03-06T17:12:56.420Z,4.70
2023-03-06T17:15:23.995Z,3.38
2023-03-06T17:17:52.335Z,5.57
2023-03-06T17:20:20.229Z,6.68
2023-03-06T17:22:47.538Z,6.05
2023-03-06T17:25:15.086Z,4.03
2023-03-06T17:27:42.367Z,5.65
2023-03-06T17:30:10.331Z,3.92
2023-03-06T17:32:40.799Z,5.95
2023-03-06T17:35:09.672Z,3.75
2023-03-06T17:37:37.042Z,4.82
2023-03-06T17:40:08.110Z,6.30
2023-03-06T17:42:35.424Z,7.78
2023-03-06T17:45:02.618Z,5.35
2023-03-06T17:47:29.903Z,6.20
2023-03-06T17:49:57.186Z,5.40
2023-03-06T17:52:24.400Z,5.00
2023-03-06T17:54:51.733Z,9.35
2023-03-06T17:57:18.966Z,7.45
2023-03-06T17:59:48.614Z,13.10
2023-03-06T18:02:15.929Z,5.93
2023-03-06T18:04:43.254Z,6.20
2023-03-06T18:07:10.910Z,11.68
2023-03-06T18:09:38.583Z,11.00
2023-03-06T18:12:05.991Z,6.20
2023-03-06T18:14:33.352Z,6.32
2023-03-06T18:17:00.649Z,8.90
2023-03-06T18:19:27.881Z,10.20
2023-03-06T18:21:55.148Z,16.92
2023-03-06T18:24:23.419Z,7.40
2023-03-06T18:26:50.657Z,10.02
2023-03-06T18:29:17.945Z,7.65
2023-03-06T18:31:46.931Z,9.80
2023-03-06T18:34:14.928Z,6.72
2023-03-06T18:36:43.635Z,11.80
2023-03-06T18:39:13.827Z,10.90
2023-03-06T18:41:42.070Z,12.70
2023-03-06T18:44:13.923Z,11.43
2023-03-06T18:46:41.531Z,11.32
2023-03-06T18:49:09.318Z,9.15
2023-03-06T18:51:36.613Z,9.77
2023-03-06T18:54:05.568Z,9.15
2023-03-06T18:56:33.454Z,11.15
2023-03-06T18:59:03.104Z,13.10
2023-03-06T19:01:31.450Z,11.27
2023-03-06T19:04:00.799Z,12.50
2023-03-06T19:06:28.918Z,18.10
2023-03-06T19:08:58.771Z,21.23
2023-03-06T19:11:26.906Z,13.73
2023-03-06T19:13:54.724Z,18.05
2023-03-06T19:16:24.495Z,15.10
2023-03-06T19:18:52.099Z,22.42
2023-03-06T19:21:21.883Z,14.85
2023-03-06T19:23:49.492Z,15.00
2023-03-06T19:26:20.850Z,16.38
2023-03-06T19:28:48.980Z,12.48
2023-03-06T19:31:25.165Z,13.38
2023-03-06T19:33:54.177Z,12.70
2023-03-06T19:36:27.365Z,13.30
2023-03-06T19:38:56.458Z,12.55
2023-03-06T19:41:24.165Z,12.57
2023-03-06T19:43:53.804Z,11.18
2023-03-06T19:46:22.947Z,11.80
2023-03-06T19:48:55.039Z,12.95
2023-03-06T19:51:22.351Z,8.43
2023-03-06T19:53:49.599Z,11.15
2023-03-06T19:56:20.639Z,10.05
2023-03-06T19:58:48.079Z,11.38
2023-03-06T20:01:20.528Z,10.27
2023-03-06T20:03:48.048Z,10.63
2023-03-06T20:06:18.510Z,11.02
2023-03-06T20:08:46.814Z,8.32
2023-03-06T20:11:26.101Z,8.80
2023-03-06T20:13:54.121Z,10.10
2023-03-06T20:16:21.356Z,8.93
2023-03-06T20:18:48.549Z,12.18
2023-03-06T20:21:16.908Z,8.27
2023-03-06T20:23:44.252Z,12.50
2023-03-06T20:26:13.740Z,11.93
2023-03-06T20:28:42.428Z,9.40
2023-03-06T20:31:18.271Z,7.70
2023-03-06T20:33:51.001Z,10.07
2023-03-06T20:36:24.004Z,9.13
2023-03-06T20:38:51.577Z,7.80
2023-03-06T20:41:25.224Z,7.57
2023-03-06T20:43:53.203Z,8.98
2023-03-06T20:46:22.194Z,8.77
2023-03-06T20:48:52.207Z,8.43
2023-03-06T20:51:22.357Z,8.18
2023-03-06T20:53:51.779Z,9.80
2023-03-06T20:56:21.466Z,9.35
2023-03-06T20:58:48.719Z,7.70
2023-03-06T21:01:24.747Z,8.35
2023-03-06T21:03:52.363Z,8.15
2023-03-06T21:06:20.378Z,7.38
2023-03-06T21:08:47.745Z,9.05
2023-03-06T21:11:15.879Z,6.85
2023-03-06T21:13:43.453Z,9.40
2023-03-06T21:16:17.010Z,9.20
2023-03-06T21:18:44.817Z,7.93
2023-03-06T21:21:14.972Z,7.60
2023-03-06T21:23:42.538Z,7.30
2023-03-06T21:26:14.613Z,9.30
2023-03-06T21:28:42.205Z,9.98
2023-03-06T21:31:11.575Z,8.20
2023-03-06T21:33:39.470Z,7.40
2023-03-06T21:36:07.560Z,8.75
2023-03-06T21:38:34.940Z,9.13
2023-03-06T21:41:08.535Z,7.50
2023-03-06T21:43:35.797Z,9.15
2023-03-06T21:46:03.415Z,9.00
2023-03-06T21:48:31.205Z,8.52
2023-03-06T21:51:09.828Z,7.35
2023-03-06T21:53:37.737Z,8.43
2023-03-06T21:56:05.473Z,8.60
2023-03-06T21:58:33.063Z,7.88
2023-03-06T22:01:00.467Z,8.05
2023-03-06T22:03:31.060Z,9.40
2023-03-06T22:06:11.987Z,17.27
2023-03-06T22:08:40.476Z,9.48
2023-03-06T22:11:10.117Z,13.50
2023-03-06T22:13:37.616Z,11.80
2023-03-06T22:16:05.742Z,12.60
2023-03-06T22:18:33.685Z,15.23
2023-03-06T22:21:09.406Z,13.95
2023-03-06T22:23:37.193Z,14.88
2023-03-06T22:26:06.558Z,9.27
2023-03-06T22:28:34.673Z,13.05
2023-03-06T22:31:26.976Z,11.18
2023-03-06T22:33:55.783Z,10.63
2023-03-06T22:36:24.054Z,9.00
2023-03-06T22:38:55.758Z,9.90
2023-03-06T22:41:23.520Z,9.95
2023-03-06T22:43:50.839Z,9.63
2023-03-06T22:46:18.475Z,17.08
2023-03-06T22:48:46.053Z,14.82
2023-03-06T22:51:15.983Z,19.95
2023-03-06T22:53:43.852Z,12.88
2023-03-06T22:56:14.215Z,13.68
2023-03-06T22:58:41.497Z,9.70
2023-03-06T23:01:17.271Z,12.18
2023-03-06T23:03:46.848Z,11.25
2023-03-06T23:06:22.719Z,14.57
2023-03-06T23:09:17.399Z,11.50
2023-03-06T23:12:03.195Z,15.07
2023-03-06T23:14:51.076Z,9.98
2023-03-06T23:17:36.852Z,14.23
2023-03-06T23:20:22.415Z,11.05
2023-03-06T23:23:08.330Z,11.80
2023-03-06T23:25:41.685Z,13.93
2023-03-06T23:28:10.281Z,17.88
2023-03-06T23:30:41.733Z,15.10
2023-03-06T23:33:09.646Z,10.73
2023-03-06T23:35:38.987Z,9.63
2023-03-06T23:38:06.623Z,10.50
2023-03-06T23:40:34.789Z,10.48
2023-03-06T23:43:02.821Z,13.85
2023-03-06T23:45:30.349Z,11.43
2023-03-06T23:47:58.142Z,13.20
2023-03-06T23:50:26.286Z,13.32
2023-03-06T23:52:54.295Z,14.02
2023-03-06T23:55:22.013Z,14.23
2023-03-06T23:57:49.406Z,13.55
